createdAt,value
2019-06-20T00:00:52.978Z,13.43
2019-06-20T00:03:23.927Z,14.33
2019-06-20T00:05:54.732Z,13.77
2019-06-20T00:08:26.004Z,14.53
2019-06-20T00:10:56.092Z,15.63
2019-06-20T00:13:25.954Z,16.70
2019-06-20T00:15:55.568Z,16.70
2019-06-20T00:18:26.715Z,16.87
2019-06-20T00:20:56.911Z,15.63
2019-06-20T00:23:28.452Z,16.40
2019-06-20T00:25:58.470Z,16.20
2019-06-20T00:28:29.417Z,16.40
2019-06-20T00:30:59.561Z,17.90
2019-06-20T00:33:31.276Z,17.80
2019-06-20T00:36:01.123Z,17.23
2019-06-20T00:38:31.451Z,17.93
2019-06-20T00:41:01.335Z,18.70
2019-06-20T00:43:31.589Z,16.87
2019-06-20T00:46:01.664Z,18.47
2019-06-20T00:48:31.752Z,17.90
2019-06-20T00:51:01.715Z,18.37
2019-06-20T00:53:31.598Z,18.17
2019-06-20T00:56:01.998Z,18.20
2019-06-20T00:58:32.204Z,19.27
2019-06-20T01:01:02.068Z,18.00
2019-06-20T01:03:32.048Z,17.73
2019-06-20T01:06:01.993Z,17.30
2019-06-20T01:08:31.920Z,18.80
2019-06-20T01:11:01.747Z,20.00
2019-06-20T01:13:34.108Z,18.33
2019-06-20T01:16:03.587Z,23.73
2019-06-20T01:18:33.887Z,19.23
2019-06-20T01:21:04.531Z,20.23
2019-06-20T01:23:34.799Z,20.10
2019-06-20T01:26:05.080Z,19.87
2019-06-20T01:28:35.600Z,20.83
2019-06-20T01:31:06.132Z,20.90
2019-06-20T01:33:36.389Z,22.47
2019-06-20T01:36:06.802Z,21.20
2019-06-20T01:38:40.429Z,22.50
2019-06-20T01:41:10.379Z,25.10
2019-06-20T01:43:50.050Z,24.90
2019-06-20T01:46:12.231Z,22.77
2019-06-20T01:48:41.987Z,22.80
2019-06-20T01:51:11.749Z,22.17
2019-06-20T01:53:42.797Z,23.23
2019-06-20T01:56:15.588Z,24.70
2019-06-20T01:58:45.473Z,26.20
2019-06-20T02:01:15.824Z,28.43
2019-06-20T02:03:45.934Z,24.80
2019-06-20T02:06:16.165Z,22.23
2019-06-20T02:08:46.027Z,21.27
2019-06-20T02:11:16.020Z,21.87
2019-06-20T02:13:46.335Z,20.50
2019-06-20T02:16:16.830Z,21.10
2019-06-20T02:18:46.559Z,22.60
2019-06-20T02:21:17.241Z,21.73
2019-06-20T02:23:47.165Z,23.27
2019-06-20T02:26:17.351Z,23.10
2019-06-20T02:28:47.436Z,19.27
2019-06-20T02:31:17.033Z,18.27
2019-06-20T02:33:46.951Z,19.03
2019-06-20T02:36:16.593Z,21.33
2019-06-20T02:38:46.373Z,19.60
2019-06-20T02:41:17.187Z,16.63
2019-06-20T02:43:47.599Z,17.97
2019-06-20T02:46:23.296Z,18.77
2019-06-20T02:48:53.240Z,16.77
2019-06-20T02:51:25.530Z,17.20
2019-06-20T02:53:55.925Z,16.70
2019-06-20T02:56:25.830Z,16.30
2019-06-20T02:58:55.596Z,17.87
2019-06-20T03:01:26.909Z,17.50
2019-06-20T03:03:57.217Z,18.20
2019-06-20T03:06:27.525Z,16.40
2019-06-20T03:08:58.084Z,17.70
2019-06-20T03:11:29.212Z,17.70
2019-06-20T03:14:00.418Z,15.60
2019-06-20T03:16:31.103Z,16.10
2019-06-20T03:19:00.711Z,15.70
2019-06-20T03:21:30.741Z,15.27
2019-06-20T03:24:02.330Z,15.20
2019-06-20T03:26:32.712Z,15.33
2019-06-20T03:29:04.080Z,15.00
2019-06-20T03:31:33.989Z,15.90
2019-06-20T03:34:04.871Z,15.90
2019-06-20T03:36:35.055Z,14.80
2019-06-20T03:39:07.586Z,15.13
2019-06-20T03:41:37.471Z,15.17
2019-06-20T03:44:07.272Z,15.77
2019-06-20T03:46:37.175Z,15.30
2019-06-20T03:49:07.281Z,14.90
2019-06-20T03:51:36.857Z,15.80
2019-06-20T03:54:06.752Z,13.50
2019-06-20T03:56:36.719Z,14.40
2019-06-20T03:59:06.502Z,14.20
2019-06-20T04:01:36.406Z,13.20
2019-06-20T04:04:06.163Z,12.70
2019-06-20T04:06:36.487Z,14.47
2019-06-20T04:09:08.895Z,14.30
2019-06-20T04:11:38.726Z,13.40
2019-06-20T04:14:08.727Z,13.87
2019-06-20T04:16:39.120Z,13.23
2019-06-20T04:19:10.192Z,12.10
2019-06-20T04:21:39.992Z,12.40
2019-06-20T04:24:10.123Z,12.80
2019-06-20T04:26:40.074Z,13.53
2019-06-20T04:29:10.147Z,11.17
2019-06-20T04:31:40.323Z,12.00
2019-06-20T04:34:10.008Z,11.30
2019-06-20T04:36:40.408Z,12.07
2019-06-20T04:39:19.335Z,11.83
2019-06-20T04:41:42.289Z,13.10
2019-06-20T04:44:12.044Z,11.80
2019-06-20T04:46:43.282Z,11.33
2019-06-20T04:49:14.754Z,12.00
2019-06-20T04:51:44.503Z,12.00
2019-06-20T04:54:14.284Z,14.20
2019-06-20T04:56:45.601Z,12.60
2019-06-20T04:59:16.998Z,12.30
2019-06-20T05:01:46.954Z,12.53
2019-06-20T05:04:16.718Z,12.97
2019-06-20T05:06:49.676Z,13.90
2019-06-20T05:09:20.906Z,14.60
2019-06-20T05:11:50.787Z,13.00
2019-06-20T05:14:20.762Z,14.13
2019-06-20T05:16:51.271Z,14.80
2019-06-20T05:19:21.398Z,15.70
2019-06-20T05:21:51.017Z,16.03
2019-06-20T05:24:20.987Z,16.67
2019-06-20T05:26:50.714Z,18.33
2019-06-20T05:29:20.394Z,19.47
2019-06-20T05:31:50.085Z,18.77
2019-06-20T05:34:19.746Z,17.60
2019-06-20T05:36:50.632Z,18.40
2019-06-20T05:39:21.665Z,19.97
2019-06-20T05:41:51.564Z,18.63
2019-06-20T05:44:21.483Z,18.37
2019-06-20T05:46:51.911Z,18.87
2019-06-20T05:49:22.818Z,18.17
2019-06-20T05:51:52.563Z,18.57
2019-06-20T05:54:22.376Z,19.87
2019-06-20T05:56:53.830Z,19.23
2019-06-20T05:59:23.498Z,19.80
2019-06-20T06:01:56.398Z,20.20
2019-06-20T06:04:26.632Z,22.13
2019-06-20T06:06:56.607Z,21.00
2019-06-20T06:09:27.202Z,19.20
2019-06-20T06:14:41.040Z,20.13
2019-06-20T06:17:11.101Z,20.27
2019-06-20T06:19:42.904Z,19.57
2019-06-20T06:22:12.598Z,20.50
2019-06-20T06:24:42.627Z,19.93
2019-06-20T06:27:13.031Z,20.37
2019-06-20T06:29:43.134Z,19.80
2019-06-20T06:32:19.887Z,19.70
2019-06-20T06:34:49.384Z,18.97
2019-06-20T06:37:19.173Z,18.80
2019-06-20T06:39:50.169Z,19.07
2019-06-20T06:42:20.914Z,18.80
2019-06-20T06:44:51.608Z,19.97
2019-06-20T06:47:21.644Z,17.93
2019-06-20T06:49:55.036Z,20.63
2019-06-20T06:52:25.069Z,19.03
2019-06-20T06:54:55.110Z,18.73
2019-06-20T06:57:25.197Z,19.83
2019-06-20T06:59:55.194Z,20.30
2019-06-20T07:02:25.058Z,18.23
2019-06-20T07:04:56.496Z,17.53
2019-06-20T07:07:28.101Z,19.93
2019-06-20T07:09:58.151Z,20.20
2019-06-20T07:12:29.300Z,19.70
2019-06-20T07:14:59.394Z,19.53
2019-06-20T07:17:29.354Z,20.90
2019-06-20T07:19:59.227Z,19.50
2019-06-20T07:22:32.499Z,19.63
2019-06-20T07:25:02.338Z,18.87
2019-06-20T07:27:33.516Z,17.77
2019-06-20T07:30:04.890Z,18.10
2019-06-20T07:32:35.271Z,20.10
2019-06-20T07:35:07.068Z,18.67
2019-06-20T07:37:38.342Z,19.17
2019-06-20T07:40:11.773Z,17.63
2019-06-20T07:42:41.951Z,17.53
2019-06-20T07:45:13.019Z,16.80
2019-06-20T07:47:42.845Z,16.50
2019-06-20T07:50:13.526Z,16.57
2019-06-20T07:52:57.770Z,15.40
2019-06-20T07:55:15.268Z,16.60
2019-06-20T07:57:45.378Z,17.87
2019-06-20T08:00:16.085Z,18.00
2019-06-20T08:02:50.633Z,18.27
2019-06-20T08:05:22.007Z,17.47
2019-06-20T08:07:51.800Z,17.50
2019-06-20T08:10:24.868Z,17.87
2019-06-20T08:12:54.952Z,17.47
2019-06-20T08:15:25.219Z,18.13
2019-06-20T08:17:56.898Z,19.70
2019-06-20T08:20:27.657Z,17.50
2019-06-20T08:22:58.638Z,17.20
2019-06-20T08:25:28.703Z,17.57
2019-06-20T08:28:00.781Z,18.77
2019-06-20T08:30:33.819Z,20.70
2019-06-20T08:33:10.358Z,17.77
2019-06-20T08:35:37.713Z,17.27
2019-06-20T08:38:07.817Z,18.53
2019-06-20T08:40:39.607Z,17.87
2019-06-20T08:43:09.840Z,18.50
2019-06-20T08:45:43.131Z,18.40
2019-06-20T08:48:13.219Z,17.93
2019-06-20T08:50:44.519Z,18.73
2019-06-20T08:53:14.447Z,17.83
2019-06-20T08:55:44.638Z,18.00
2019-06-20T08:58:14.616Z,17.40
2019-06-20T09:00:44.706Z,17.50
2019-06-20T09:03:14.360Z,17.00
2019-06-20T09:05:46.114Z,17.33
2019-06-20T09:08:15.878Z,16.07
2019-06-20T09:10:45.634Z,17.53
2019-06-20T09:13:15.583Z,17.17
2019-06-20T09:15:45.353Z,16.63
2019-06-20T09:18:15.425Z,19.47
2019-06-20T09:20:45.347Z,17.77
2019-06-20T09:23:15.053Z,18.27
2019-06-20T09:25:44.717Z,19.90
2019-06-20T09:28:14.351Z,17.70
2019-06-20T09:30:44.177Z,18.13
2019-06-20T09:33:14.245Z,18.33
2019-06-20T09:35:43.902Z,18.10
2019-06-20T09:38:13.613Z,17.47
2019-06-20T09:40:43.618Z,17.93
2019-06-20T09:43:26.712Z,19.00
2019-06-20T09:45:45.531Z,17.37
2019-06-20T09:48:16.553Z,16.70
2019-06-20T09:50:49.391Z,18.23
2019-06-20T09:53:18.485Z,18.20
2019-06-20T09:55:49.943Z,19.30
2019-06-20T09:58:19.742Z,22.07
2019-06-20T10:00:51.279Z,21.43
2019-06-20T10:03:21.108Z,22.83
2019-06-20T10:05:52.330Z,23.47
2019-06-20T10:08:22.501Z,21.07
2019-06-20T10:10:54.170Z,21.80
2019-06-20T10:13:24.054Z,22.93
2019-06-20T10:15:53.780Z,22.77
2019-06-20T10:18:23.431Z,21.80
2019-06-20T10:20:54.676Z,28.07
2019-06-20T10:23:24.470Z,23.70
2019-06-20T10:25:54.163Z,23.67
2019-06-20T10:28:24.079Z,22.20
2019-06-20T10:30:59.354Z,22.60
2019-06-20T10:33:39.213Z,24.00
2019-06-20T10:36:11.298Z,22.10
2019-06-20T10:38:41.172Z,24.50
2019-06-20T10:41:11.119Z,23.83
2019-06-20T10:43:44.172Z,19.87
2019-06-20T10:46:14.492Z,20.53
2019-06-20T10:48:44.390Z,14.57
2019-06-20T10:51:16.701Z,14.70
2019-06-20T10:53:47.149Z,16.63
2019-06-20T10:56:20.560Z,16.50
2019-06-20T10:58:51.020Z,17.97
2019-06-20T11:01:21.375Z,17.17
2019-06-20T11:03:51.655Z,19.23
2019-06-20T11:06:25.742Z,17.23
2019-06-20T11:08:55.511Z,18.40
2019-06-20T11:11:27.436Z,17.60
2019-06-20T11:13:57.213Z,17.97
2019-06-20T11:16:27.309Z,18.47
2019-06-20T11:18:56.961Z,18.20
2019-06-20T11:21:28.174Z,17.63
2019-06-20T11:23:58.909Z,14.50
2019-06-20T11:26:29.311Z,14.77
2019-06-20T11:28:59.281Z,13.90
2019-06-20T11:31:29.055Z,14.77
2019-06-20T11:33:58.760Z,14.07
2019-06-20T11:36:28.721Z,16.17
2019-06-20T11:38:58.956Z,15.50
2019-06-20T11:41:28.756Z,15.80
2019-06-20T11:43:58.792Z,16.60
2019-06-20T11:46:31.709Z,17.27
2019-06-20T11:49:02.343Z,16.73
2019-06-20T11:51:35.695Z,16.03
2019-06-20T11:54:06.501Z,18.10
2019-06-20T11:56:36.133Z,17.07
2019-06-20T11:59:05.895Z,16.13
2019-06-20T12:01:35.974Z,17.03
2019-06-20T12:04:05.901Z,15.90
2019-06-20T12:06:35.620Z,16.40
2019-06-20T12:09:07.921Z,14.60
2019-06-20T12:11:39.047Z,14.30
2019-06-20T12:14:09.140Z,13.37
2019-06-20T12:16:40.528Z,14.10
2019-06-20T12:19:10.222Z,14.27
2019-06-20T12:21:41.009Z,12.67
2019-06-20T12:24:11.267Z,13.70
2019-06-20T12:26:42.325Z,13.50
2019-06-20T12:29:13.033Z,13.10
2019-06-20T12:31:43.139Z,13.27
2019-06-20T12:34:13.187Z,12.50
2019-06-20T12:36:44.419Z,12.00
2019-06-20T12:39:14.084Z,10.70
2019-06-20T12:41:43.713Z,11.90
2019-06-20T12:44:14.170Z,10.47
2019-06-20T12:46:44.807Z,12.20
2019-06-20T12:49:14.814Z,10.20
2019-06-20T12:51:47.032Z,11.40
2019-06-20T12:54:17.195Z,10.33
2019-06-20T12:56:48.199Z,9.20
2019-06-20T12:59:18.152Z,9.17
2019-06-20T13:01:49.909Z,9.80
2019-06-20T13:04:20.718Z,9.00
2019-06-20T13:06:51.657Z,11.63
2019-06-20T13:09:21.359Z,9.90
2019-06-20T13:11:51.244Z,10.13
2019-06-20T13:14:20.994Z,10.70
2019-06-20T13:16:50.734Z,9.87
2019-06-20T13:19:20.529Z,9.53
2019-06-20T13:21:50.513Z,9.43
2019-06-20T13:24:21.180Z,9.43
2019-06-20T13:26:50.913Z,9.93
2019-06-20T13:29:21.346Z,9.67
2019-06-20T13:32:02.083Z,9.33
2019-06-20T13:34:22.804Z,10.60
2019-06-20T13:36:52.875Z,10.47
2019-06-20T13:39:23.031Z,9.80
2019-06-20T13:41:52.660Z,10.07
2019-06-20T13:44:23.647Z,11.33
2019-06-20T13:46:54.097Z,11.40
2019-06-20T13:49:24.049Z,10.70
2019-06-20T13:51:54.631Z,11.30
2019-06-20T13:54:24.601Z,10.50
2019-06-20T13:57:01.670Z,10.37
2019-06-20T13:59:34.108Z,10.03
2019-06-20T14:02:06.960Z,9.90
2019-06-20T14:04:36.236Z,10.67
2019-06-20T14:07:08.814Z,8.40
2019-06-20T14:09:37.983Z,8.87
2019-06-20T14:12:09.917Z,7.87
2019-06-20T14:14:41.970Z,6.83
2019-06-20T14:17:11.368Z,7.10
2019-06-20T14:19:42.183Z,7.00
2019-06-20T14:22:13.189Z,6.73
2019-06-20T14:24:45.088Z,6.20
2019-06-20T14:27:15.166Z,6.00
2019-06-20T14:29:45.142Z,6.93
2019-06-20T14:32:22.137Z,6.20
2019-06-20T14:34:48.079Z,6.17
2019-06-20T14:37:18.472Z,6.60
2019-06-20T14:39:50.967Z,6.50
2019-06-20T14:42:23.744Z,6.80
2019-06-20T14:44:54.221Z,5.87
2019-06-20T14:47:24.546Z,4.80
2019-06-20T14:49:54.644Z,4.77
2019-06-20T14:52:24.397Z,4.97
2019-06-20T14:54:54.463Z,5.00
2019-06-20T14:57:24.550Z,4.90
2019-06-20T14:59:56.237Z,4.60
2019-06-20T15:02:38.057Z,4.10
2019-06-20T15:04:58.088Z,4.87
2019-06-20T15:07:28.080Z,4.80
2019-06-20T15:09:58.148Z,5.10
2019-06-20T15:12:27.879Z,5.23
2019-06-20T15:14:57.851Z,5.10
2019-06-20T15:17:27.584Z,5.37
2019-06-20T15:19:57.334Z,5.03
2019-06-20T15:22:27.694Z,5.00
2019-06-20T15:24:57.687Z,6.30
2019-06-20T15:27:27.748Z,5.20
2019-06-20T15:29:57.971Z,5.77
2019-06-20T15:32:27.903Z,5.50
2019-06-20T15:34:57.791Z,5.20
2019-06-20T15:37:27.453Z,4.80
2019-06-20T15:39:57.539Z,5.10
2019-06-20T15:42:27.913Z,4.40
2019-06-20T15:44:58.134Z,5.27
2019-06-20T15:47:28.088Z,5.40
2019-06-20T15:49:58.025Z,5.93
2019-06-20T15:52:27.784Z,5.40
2019-06-20T15:54:57.673Z,5.13
2019-06-20T15:57:27.632Z,5.27
2019-06-20T15:59:57.285Z,5.60
2019-06-20T16:02:27.094Z,5.37
2019-06-20T16:04:56.767Z,5.90
2019-06-20T16:07:26.478Z,5.57
2019-06-20T16:10:00.173Z,7.60
2019-06-20T16:12:29.899Z,5.90
2019-06-20T16:14:59.517Z,37.47
2019-06-20T16:17:29.282Z,5.60
2019-06-20T16:19:58.995Z,14.40
2019-06-20T16:22:28.746Z,6.00
2019-06-20T16:24:58.682Z,5.60
2019-06-20T16:27:28.716Z,5.60
2019-06-20T16:29:59.535Z,5.47
2019-06-20T16:32:29.225Z,6.20
2019-06-20T16:34:59.046Z,4.90
2019-06-20T16:37:28.851Z,4.90
2019-06-20T16:39:58.697Z,4.87
2019-06-20T16:42:28.401Z,4.50
2019-06-20T16:44:58.130Z,4.40
2019-06-20T16:47:27.896Z,4.30
2019-06-20T16:49:58.707Z,4.53
2019-06-20T16:52:28.478Z,4.53
2019-06-20T16:55:00.219Z,4.23
2019-06-20T16:57:33.025Z,4.53
2019-06-20T17:00:02.996Z,5.77
2019-06-20T17:02:33.032Z,5.47
2019-06-20T17:05:02.857Z,4.70
2019-06-20T17:07:32.768Z,4.97
2019-06-20T17:10:02.625Z,5.07
2019-06-20T17:12:32.714Z,5.57
2019-06-20T17:15:02.471Z,4.40
2019-06-20T17:17:32.348Z,5.80
2019-06-20T17:20:03.388Z,5.23
2019-06-20T17:22:33.116Z,5.47
2019-06-20T17:25:03.370Z,5.10
2019-06-20T17:27:32.942Z,4.60
2019-06-20T17:30:05.949Z,5.10
2019-06-20T17:32:36.228Z,5.00
2019-06-20T17:35:08.581Z,4.67
2019-06-20T17:37:39.101Z,5.53
2019-06-20T17:40:11.266Z,5.40
2019-06-20T17:42:41.134Z,6.10
2019-06-20T17:45:11.744Z,7.73
2019-06-20T17:47:42.967Z,6.60
2019-06-20T17:50:14.184Z,6.67
2019-06-20T17:52:43.996Z,6.13
2019-06-20T17:55:14.220Z,5.73
2019-06-20T17:57:45.359Z,5.90
2019-06-20T18:00:17.677Z,5.77
2019-06-20T18:02:47.385Z,6.40
2019-06-20T18:05:19.535Z,5.50
2019-06-20T18:07:49.202Z,7.23
2019-06-20T18:10:20.432Z,7.30
2019-06-20T18:12:51.510Z,7.80
2019-06-20T18:15:23.296Z,7.60
2019-06-20T18:17:54.639Z,6.90
2019-06-20T18:20:25.122Z,6.70
2019-06-20T18:22:54.786Z,7.43
2019-06-20T18:25:24.461Z,7.57
2019-06-20T18:27:54.093Z,7.50
2019-06-20T18:30:27.021Z,8.90
2019-06-20T18:32:57.199Z,7.17
2019-06-20T18:35:27.440Z,7.17
2019-06-20T18:37:57.283Z,8.37
2019-06-20T18:40:27.819Z,7.83
2019-06-20T18:42:57.688Z,8.37
2019-06-20T18:45:36.084Z,8.60
2019-06-20T18:48:14.090Z,9.10
2019-06-20T18:50:45.844Z,7.20
2019-06-20T18:53:15.696Z,7.70
2019-06-20T18:55:47.247Z,7.63
2019-06-20T18:58:18.151Z,7.77
2019-06-20T19:00:48.487Z,7.77
2019-06-20T19:03:22.668Z,7.63
2019-06-20T19:05:52.970Z,7.80
2019-06-20T19:08:23.130Z,7.60
2019-06-20T19:10:53.918Z,7.20
2019-06-20T19:13:25.264Z,7.57
2019-06-20T19:15:55.279Z,7.80
2019-06-20T19:18:25.280Z,7.80
2019-06-20T19:20:55.853Z,8.10
2019-06-20T19:23:25.625Z,8.03
2019-06-20T19:25:55.595Z,8.13
2019-06-20T19:28:26.306Z,8.20
2019-06-20T19:30:56.403Z,7.83
2019-06-20T19:33:26.303Z,7.77
2019-06-20T19:35:56.003Z,8.23
2019-06-20T19:38:25.720Z,7.47
2019-06-20T19:40:55.866Z,8.07
2019-06-20T19:43:25.547Z,8.60
2019-06-20T19:45:55.482Z,9.37
2019-06-20T19:48:26.264Z,8.60
2019-06-20T19:50:58.632Z,8.70
2019-06-20T19:53:28.499Z,8.70
2019-06-20T19:55:58.617Z,9.00
2019-06-20T19:58:28.377Z,9.50
2019-06-20T20:00:58.315Z,10.23
2019-06-20T20:03:28.207Z,9.77
2019-06-20T20:05:58.552Z,9.37
2019-06-20T20:08:28.687Z,9.70
2019-06-20T20:10:58.410Z,9.57
2019-06-20T20:13:28.111Z,9.00
2019-06-20T20:15:57.839Z,9.87
2019-06-20T20:18:27.717Z,56.40
2019-06-20T20:20:57.378Z,10.17
2019-06-20T20:23:27.460Z,10.27
2019-06-20T20:25:59.298Z,9.83
2019-06-20T20:28:29.505Z,10.20
2019-06-20T20:30:59.280Z,10.60
2019-06-20T20:33:29.119Z,9.57
2019-06-20T20:36:01.827Z,11.60
2019-06-20T20:38:31.121Z,11.00
2019-06-20T20:41:02.709Z,10.73
2019-06-20T20:43:32.589Z,11.17
2019-06-20T20:46:03.267Z,10.23
2019-06-20T20:48:34.829Z,10.13
2019-06-20T20:51:04.614Z,10.37
2019-06-20T20:53:34.687Z,10.73
2019-06-20T20:56:04.752Z,9.70
2019-06-20T20:58:34.804Z,9.77
2019-06-20T21:01:06.003Z,10.27
2019-06-20T21:03:36.848Z,11.30
2019-06-20T21:06:06.505Z,10.90
2019-06-20T21:08:36.248Z,11.00
2019-06-20T21:11:06.299Z,11.03
2019-06-20T21:13:36.404Z,10.63
2019-06-20T21:16:06.296Z,11.80
2019-06-20T21:18:36.360Z,11.00
2019-06-20T21:21:06.164Z,11.23
2019-06-20T21:23:36.416Z,11.47
2019-06-20T21:26:06.473Z,11.13
2019-06-20T21:28:36.384Z,11.50
2019-06-20T21:31:07.285Z,10.17
2019-06-20T21:33:37.038Z,12.00
2019-06-20T21:36:08.921Z,11.50
2019-06-20T21:38:38.794Z,11.30
2019-06-20T21:41:08.664Z,11.83
2019-06-20T21:43:38.425Z,12.00
2019-06-20T21:46:08.269Z,11.60
2019-06-20T21:48:38.145Z,12.03
2019-06-20T21:51:08.230Z,12.17
2019-06-20T21:53:38.637Z,11.17
2019-06-20T21:56:08.718Z,11.57
2019-06-20T21:58:38.373Z,12.23
2019-06-20T22:01:10.581Z,12.53
2019-06-20T22:03:41.511Z,12.03
2019-06-20T22:06:23.312Z,11.23
2019-06-20T22:08:43.070Z,11.30
2019-06-20T22:11:13.356Z,12.27
2019-06-20T22:13:44.716Z,12.53
2019-06-20T22:16:14.583Z,12.30
2019-06-20T22:18:44.554Z,12.37
2019-06-20T22:21:14.738Z,11.60
2019-06-20T22:23:44.710Z,11.00
2019-06-20T22:26:15.106Z,10.93
2019-06-20T22:28:45.301Z,10.43
2019-06-20T22:31:15.268Z,10.93
2019-06-20T22:33:45.679Z,10.87
2019-06-20T22:36:16.071Z,11.37
2019-06-20T22:38:46.613Z,11.00
2019-06-20T22:41:17.214Z,11.00
2019-06-20T22:43:47.584Z,11.07
2019-06-20T22:46:17.634Z,11.13
2019-06-20T22:48:47.750Z,11.50
2019-06-20T22:51:18.150Z,12.30
2019-06-20T22:53:48.005Z,11.90
2019-06-20T22:56:17.978Z,11.27
2019-06-20T22:58:47.661Z,11.83
2019-06-20T23:01:17.505Z,12.40
2019-06-20T23:03:47.299Z,11.30
2019-06-20T23:06:17.342Z,11.90
2019-06-20T23:08:47.426Z,11.93
2019-06-20T23:11:17.519Z,11.80
2019-06-20T23:13:47.430Z,11.90
2019-06-20T23:16:17.990Z,11.50
2019-06-20T23:18:48.073Z,11.50
2019-06-20T23:21:18.468Z,11.30
2019-06-20T23:23:48.865Z,10.77
2019-06-20T23:26:18.939Z,11.83
2019-06-20T23:28:50.735Z,12.20
2019-06-20T23:31:21.403Z,10.87
2019-06-20T23:33:51.763Z,11.13
2019-06-20T23:36:23.494Z,12.63
2019-06-20T23:38:53.936Z,12.70
2019-06-20T23:41:24.824Z,12.97
2019-06-20T23:43:56.711Z,11.63
2019-06-20T23:46:27.892Z,11.90
2019-06-20T23:49:02.464Z,12.00
2019-06-20T23:51:33.907Z,10.73
2019-06-20T23:54:03.918Z,11.90
2019-06-20T23:56:34.021Z,11.47
2019-06-20T23:59:04.431Z,12.17
